Time;durP1;ratioP1;P1;durP2;ratioP2;P2;SDS_P1;SDS_P2;PMS_P1;PMS_P2;Temp;Humidity;BMP_temperature;BMP_pressure;BME280_temperature;BME280_humidity;BME280_pressure;Samples;Min_cycle;Max_cycle;Signal;HPM_P1;HPM_P2
2022/05/26 00:00:22;;;;;;;;;;;;;;;16.13;53.83;100487.50;6220193;23;1885;-87
2022/05/26 00:02:47;;;;;;;;;;;;;;;16.26;53.44;100491.28;6220349;23;1184;-87
2022/05/26 00:05:13;;;;;;;;;;;;;;;16.42;53.27;100486.13;6246781;23;709;-88
2022/05/26 00:07:38;;;;;;;;;;;;;;;16.17;54.49;100491.25;6220095;23;1305;-89
2022/05/26 00:10:03;;;;;;;;;;;;;;;16.52;53.28;100489.44;6219894;23;1317;-89
2022/05/26 00:12:32;;;;;;;;;;;;;;;16.38;53.03;100483.22;6219927;23;1182;-87
2022/05/26 00:14:57;;;;;;;;;;;;;;;16.30;54.10;100491.47;6246044;23;1164;-87
2022/05/26 00:17:22;;;;;;;;;;;;;;;16.32;53.82;100486.44;6246834;23;979;-88
2022/05/26 00:19:48;;;;;;;;;;;;;;;16.18;55.08;100497.56;6219982;23;1922;-88
2022/05/26 00:22:13;;;;;;;;;;;;;;;16.24;54.89;100494.38;6220154;23;1242;-88
2022/05/26 00:24:38;;;;;;;;;;;;;;;16.24;54.23;100493.56;6219728;23;1287;-88
2022/05/26 00:27:04;;;;;;;;;;;;;;;16.26;54.85;100499.56;6246896;23;791;-88
2022/05/26 00:29:29;;;;;;;;;;;;;;;16.44;54.07;100492.97;6219909;23;1222;-88
2022/05/26 00:31:54;;;;;;;;;;;;;;;16.37;55.35;100489.88;6220309;23;1294;-88
2022/05/26 00:34:19;;;;;;;;;;;;;;;16.20;55.41;100495.31;6232568;23;1361;-87
2022/05/26 00:36:44;;;;;;;;;;;;;;;16.24;55.71;100499.91;6245208;23;1166;-87
2022/05/26 00:39:28;;;;;;;;;;;;;;;16.41;55.41;100495.59;6245220;23;1249;-86
2022/05/26 00:41:54;;;;;;;;;;;;;;;16.41;55.14;100498.34;6245018;23;1934;-87
2022/05/26 00:44:20;;;;;;;;;;;;;;;16.21;55.58;100494.19;6246327;22;1250;-88
2022/05/26 00:46:51;;;;;;;;;;;;;;;16.15;56.46;100496.28;6245617;23;1186;-88
2022/05/26 00:49:19;;;;;;;;;;;;;;;16.05;56.64;100496.56;6245371;23;1158;-87
2022/05/26 00:51:45;;;;;;;;;;;;;;;16.13;56.93;100498.53;6247253;22;813;-88
2022/05/26 00:54:13;;;;;;;;;;;;;;;16.11;56.71;100494.47;6245544;23;1307;-88
2022/05/26 00:56:42;;;;;;;;;;;;;;;16.27;56.26;100492.91;6247161;22;972;-88
2022/05/26 00:59:14;;;;;;;;;;;;;;;16.71;56.32;100489.19;6258815;22;1007;-88
2022/05/26 01:01:39;;;;;;;;;;;;;;;16.79;55.30;100493.94;6247036;23;1935;-88
2022/05/26 01:04:07;;;;;;;;;;;;;;;16.42;55.80;100486.13;6246958;23;1203;-88
2022/05/26 01:06:40;;;;;;;;;;;;;;;16.33;56.01;100497.19;6247305;23;1278;-88
2022/05/26 01:09:06;;;;;;;;;;;;;;;16.29;56.70;100498.94;6247298;23;1192;-88
2022/05/26 01:11:33;;;;;;;;;;;;;;;15.96;57.86;100501.22;6247242;23;1188;-89
2022/05/26 01:14:01;;;;;;;;;;;;;;;16.01;58.79;100483.69;6246522;23;1408;-88
2022/05/26 01:16:34;;;;;;;;;;;;;;;16.35;57.50;100494.06;6247493;23;1368;-88
2022/05/26 01:19:19;;;;;;;;;;;;;;;16.37;56.97;100492.63;6247450;23;1175;-87
2022/05/26 01:22:14;;;;;;;;;;;;;;;16.16;58.24;100491.59;6271572;22;1932;-88
2022/05/26 01:24:52;;;;;;;;;;;;;;;16.30;56.99;100494.22;6234923;23;1301;-88
2022/05/26 01:27:22;;;;;;;;;;;;;;;15.95;57.99;100496.00;6247073;23;1174;-88
2022/05/26 01:30:03;;;;;;;;;;;;;;;16.03;58.46;100492.47;6246871;23;1186;-88
2022/05/26 01:32:36;;;;;;;;;;;;;;;16.32;57.06;100483.69;6249376;23;1218;-88
2022/05/26 01:35:14;;;;;;;;;;;;;;;16.02;57.75;100482.56;6254179;23;1321;-88
2022/05/26 01:38:02;;;;;;;;;;;;;;;15.85;58.40;100486.84;6253132;22;1011;-88
2022/05/26 01:40:27;;;;;;;;;;;;;;;16.00;57.88;100487.56;6260071;22;1934;-88
2022/05/26 01:43:11;;;;;;;;;;;;;;;15.96;58.92;100492.13;6246672;23;1274;-88
2022/05/26 01:45:58;;;;;;;;;;;;;;;16.10;58.32;100484.53;6246695;23;1242;-87
2022/05/26 01:48:39;;;;;;;;;;;;;;;16.31;58.00;100482.88;6247058;23;1219;-88
2022/05/26 01:51:16;;;;;;;;;;;;;;;16.28;57.35;100481.53;6246795;23;1175;-88
2022/05/26 01:53:56;;;;;;;;;;;;;;;16.16;58.27;100470.28;6246286;23;1291;-87
2022/05/26 01:56:25;;;;;;;;;;;;;;;16.33;57.76;100485.31;6246411;23;1150;-87
2022/05/26 01:58:59;;;;;;;;;;;;;;;16.16;57.35;100477.78;6246934;23;1436;-87
2022/05/26 02:01:26;;;;;;;;;;;;;;;16.10;58.76;100470.75;6246704;23;1884;-88
2022/05/26 02:03:52;;;;;;;;;;;;;;;15.92;58.92;100464.31;6246537;23;1565;-88
2022/05/26 02:06:20;;;;;;;;;;;;;;;16.21;58.46;100472.09;6248250;22;1039;-88
2022/05/26 02:08:49;;;;;;;;;;;;;;;16.10;57.56;100477.09;6248397;22;778;-88
2022/05/26 02:11:16;;;;;;;;;;;;;;;16.05;58.00;100473.66;6246575;23;1447;-86
2022/05/26 02:13:41;;;;;;;;;;;;;;;15.99;59.08;100478.47;6246206;23;1290;-87
2022/05/26 02:16:10;;;;;;;;;;;;;;;15.89;58.85;100473.25;6248014;23;774;-88
2022/05/26 02:18:46;;;;;;;;;;;;;;;15.79;58.62;100479.03;6246673;23;1266;-88
2022/05/26 02:21:17;;;;;;;;;;;;;;;15.82;59.23;100481.16;6246856;23;1907;-88
2022/05/26 02:23:46;;;;;;;;;;;;;;;16.29;57.49;100476.84;6245863;23;1350;-88
2022/05/26 02:26:13;;;;;;;;;;;;;;;16.25;57.20;100486.88;6246424;23;1266;-88
2022/05/26 02:31:24;;;;;;;;;;;;;;;15.86;58.90;100474.69;6248392;23;585;-87
2022/05/26 02:33:51;;;;;;;;;;;;;;;15.93;58.79;100477.00;6245972;23;1250;-88
2022/05/26 02:36:16;;;;;;;;;;;;;;;15.83;58.67;100478.06;6246295;23;1238;-88
2022/05/26 02:38:41;;;;;;;;;;;;;;;15.57;59.89;100476.31;6247979;22;1038;-87
2022/05/26 02:41:07;;;;;;;;;;;;;;;15.96;59.00;100483.84;6271356;22;1920;-87
2022/05/26 02:43:33;;;;;;;;;;;;;;;15.92;58.91;100482.81;6245839;23;1256;-88
2022/05/26 02:46:10;;;;;;;;;;;;;;;15.80;59.78;100483.44;6244449;23;1186;-87
2022/05/26 02:48:51;;;;;;;;;;;;;;;15.80;59.57;100483.44;6246162;23;1210;-87
2022/05/26 02:51:19;;;;;;;;;;;;;;;16.09;59.32;100493.97;6247814;22;884;-88
2022/05/26 02:53:52;;;;;;;;;;;;;;;16.14;59.44;100497.41;6246085;23;1214;-87
2022/05/26 02:56:41;;;;;;;;;;;;;;;15.72;60.89;100503.50;6245729;23;1321;-87
2022/05/26 02:59:17;;;;;;;;;;;;;;;16.01;59.98;100500.25;6246038;23;1353;-87
2022/05/26 03:01:45;;;;;;;;;;;;;;;15.84;60.44;100501.78;6246049;23;1928;-88
2022/05/26 03:04:19;;;;;;;;;;;;;;;15.70;62.05;100495.53;6245734;23;1356;-87
2022/05/26 03:06:49;;;;;;;;;;;;;;;15.80;61.37;100494.47;6247671;22;1039;-87
2022/05/26 03:09:15;;;;;;;;;;;;;;;15.81;61.66;100491.41;6245972;23;1184;-88
2022/05/26 03:11:46;;;;;;;;;;;;;;;15.80;61.61;100497.22;6246079;23;1143;-88
2022/05/26 03:14:11;;;;;;;;;;;;;;;15.98;61.04;100492.63;6245905;23;1286;-87
2022/05/26 03:16:37;;;;;;;;;;;;;;;16.13;61.18;100504.06;6245901;23;1110;-87
2022/05/26 03:19:02;;;;;;;;;;;;;;;15.78;62.44;100500.28;6271437;22;1372;-88
2022/05/26 03:21:27;;;;;;;;;;;;;;;15.75;63.46;100503.66;6245725;23;1892;-88
2022/05/26 03:23:52;;;;;;;;;;;;;;;15.92;62.23;100502.16;6271385;22;1202;-87
2022/05/26 03:26:18;;;;;;;;;;;;;;;15.67;63.78;100506.38;6245874;23;1182;-87
2022/05/26 03:28:43;;;;;;;;;;;;;;;15.78;63.40;100508.56;6245845;23;1261;-88
2022/05/26 03:31:08;;;;;;;;;;;;;;;15.79;63.43;100507.44;6247179;23;1016;-88
2022/05/26 03:40:46;;;;;;;;;;;;;;;15.52;64.09;100505.59;6245585;23;1385;-88
2022/05/26 03:41:46;;;;;;;;;;;;;;;15.73;64.32;100510.66;6247969;23;1939;-88
2022/05/26 03:44:12;;;;;;;;;;;;;;;15.72;64.95;100515.34;6246408;23;1423;-88
2022/05/26 03:46:38;;;;;;;;;;;;;;;15.94;64.55;100520.03;6246206;23;1265;-87
2022/05/26 03:49:04;;;;;;;;;;;;;;;16.25;63.08;100512.56;6247667;22;794;-87
2022/05/26 03:51:29;;;;;;;;;;;;;;;16.19;63.62;100522.13;6247676;23;1008;-87
2022/05/26 03:53:54;;;;;;;;;;;;;;;16.43;62.44;100523.69;6247744;22;1240;-87
2022/05/26 03:56:19;;;;;;;;;;;;;;;16.14;63.59;100529.75;6245936;23;806;-87
2022/05/26 03:58:44;;;;;;;;;;;;;;;15.87;65.75;100526.00;6246218;23;996;-87
2022/05/26 04:01:10;;;;;;;;;;;;;;;15.80;64.87;100533.09;6247259;23;1925;-87
2022/05/26 04:03:35;;;;;;;;;;;;;;;16.07;64.02;100537.66;6271598;22;1278;-87
2022/05/26 04:06:00;;;;;;;;;;;;;;;15.93;64.49;100532.19;6248022;23;854;-87
2022/05/26 04:08:25;;;;;;;;;;;;;;;15.57;65.58;100542.53;6246266;23;1314;-87
2022/05/26 04:10:50;;;;;;;;;;;;;;;15.70;66.21;100549.91;6245799;23;1172;-87
2022/05/26 04:13:16;;;;;;;;;;;;;;;15.81;65.14;100543.84;6245616;23;1297;-88
2022/05/26 04:15:41;;;;;;;;;;;;;;;15.91;64.93;100545.50;6246059;23;1202;-88
2022/05/26 04:18:06;;;;;;;;;;;;;;;15.60;65.95;100550.16;6245897;23;1156;-87
2022/05/26 04:20:31;;;;;;;;;;;;;;;15.49;67.42;100555.88;6245646;23;1889;-88
2022/05/26 04:22:56;;;;;;;;;;;;;;;15.39;67.66;100561.66;6245671;23;1421;-87
2022/05/26 04:25:22;;;;;;;;;;;;;;;15.39;67.75;100558.06;6245445;23;931;-88
2022/05/26 04:27:47;;;;;;;;;;;;;;;15.40;68.00;100563.25;6245630;23;1341;-88
2022/05/26 04:30:13;;;;;;;;;;;;;;;15.48;67.71;100565.28;6245647;23;1302;-87
2022/05/26 04:32:39;;;;;;;;;;;;;;;15.46;67.14;100567.56;6246995;23;1071;-87
2022/05/26 04:35:04;;;;;;;;;;;;;;;15.33;68.38;100570.31;6244654;23;1242;-88
2022/05/26 04:37:30;;;;;;;;;;;;;;;15.48;68.73;100568.03;6271260;22;1280;-88
2022/05/26 04:39:55;;;;;;;;;;;;;;;15.65;67.69;100567.38;6245270;23;1889;-87
2022/05/26 04:42:21;;;;;;;;;;;;;;;15.42;68.73;100565.72;6245782;23;1226;-88
2022/05/26 04:44:46;;;;;;;;;;;;;;;15.70;68.25;100572.00;6245393;23;1251;-87
2022/05/26 04:47:12;;;;;;;;;;;;;;;15.27;70.01;100569.63;6245397;23;961;-88
2022/05/26 04:49:38;;;;;;;;;;;;;;;15.60;69.12;100573.03;6246135;23;1357;-87
2022/05/26 04:52:04;;;;;;;;;;;;;;;15.84;69.81;100578.25;6245568;23;1218;-88
2022/05/26 04:54:29;;;;;;;;;;;;;;;15.42;72.69;100579.50;6245082;23;1245;-88
2022/05/26 04:56:55;;;;;;;;;;;;;;;15.39;72.20;100586.47;6245606;23;1024;-88
2022/05/26 04:59:20;;;;;;;;;;;;;;;15.30;71.83;100588.34;6245611;23;1274;-88
2022/05/26 05:01:45;;;;;;;;;;;;;;;15.37;72.86;100598.94;6246043;23;1928;-88
2022/05/26 05:04:10;;;;;;;;;;;;;;;15.62;72.26;100598.38;6246180;23;1273;-88
2022/05/26 05:06:35;;;;;;;;;;;;;;;15.87;70.96;100589.50;6245340;23;834;-88
2022/05/26 05:09:00;;;;;;;;;;;;;;;16.10;71.00;100587.53;6245521;23;1007;-89
2022/05/26 05:11:26;;;;;;;;;;;;;;;16.22;70.33;100596.06;6245343;23;1178;-88
2022/05/26 05:13:51;;;;;;;;;;;;;;;15.92;71.24;100602.34;6245423;23;1373;-88
2022/05/26 05:16:20;;;;;;;;;;;;;;;15.93;71.14;100608.69;6245613;23;1541;-89
2022/05/26 05:18:45;;;;;;;;;;;;;;;15.96;71.76;100603.38;6246788;23;1231;-88
2022/05/26 05:21:13;;;;;;;;;;;;;;;15.88;72.43;100609.63;6247900;23;1892;-88
2022/05/26 05:23:41;;;;;;;;;;;;;;;16.04;71.53;100610.88;6246994;23;1305;-88
2022/05/26 05:26:08;;;;;;;;;;;;;;;16.15;71.83;100606.75;6246040;23;1207;-88
2022/05/26 05:28:35;;;;;;;;;;;;;;;16.02;71.81;100620.59;6245488;23;1183;-88
2022/05/26 05:31:03;;;;;;;;;;;;;;;15.03;75.52;100624.22;6245774;23;1381;-88
2022/05/26 05:33:42;;;;;;;;;;;;;;;15.11;76.13;100627.06;6245005;23;1277;-88
2022/05/26 05:36:08;;;;;;;;;;;;;;;15.39;74.68;100627.03;6245605;23;1298;-88
2022/05/26 05:38:35;;;;;;;;;;;;;;;15.38;75.16;100634.50;6245141;23;1210;-88
2022/05/26 05:41:00;;;;;;;;;;;;;;;15.48;76.35;100630.69;6245485;23;2008;-88
2022/05/26 05:43:25;;;;;;;;;;;;;;;15.24;77.49;100635.63;6246167;23;1400;-88
2022/05/26 05:45:51;;;;;;;;;;;;;;;15.72;75.40;100630.44;6245190;23;1325;-88
2022/05/26 05:48:16;;;;;;;;;;;;;;;16.10;73.06;100636.41;6246614;23;1060;-89
2022/05/26 05:50:41;;;;;;;;;;;;;;;15.84;73.53;100634.28;6247044;23;1155;-88
2022/05/26 05:53:06;;;;;;;;;;;;;;;15.97;74.74;100649.16;6246416;23;1255;-88
2022/05/26 05:55:31;;;;;;;;;;;;;;;16.08;74.13;100645.00;6247126;23;1387;-88
2022/05/26 05:57:56;;;;;;;;;;;;;;;16.02;74.00;100639.94;6247358;23;1344;-88
2022/05/26 06:00:22;;;;;;;;;;;;;;;15.69;75.54;100644.84;6246815;23;1918;-88
2022/05/26 06:02:47;;;;;;;;;;;;;;;15.41;76.65;100655.91;6247581;23;1340;-87
2022/05/26 06:05:12;;;;;;;;;;;;;;;15.37;76.97;100656.84;6246954;23;1243;-88
2022/05/26 06:07:40;;;;;;;;;;;;;;;15.52;76.24;100654.59;6246880;23;1297;-88
2022/05/26 06:10:06;;;;;;;;;;;;;;;15.84;75.38;100661.06;6247025;23;1517;-88
2022/05/26 06:12:31;;;;;;;;;;;;;;;15.85;75.11;100660.75;6247106;23;1190;-88
2022/05/26 06:14:56;;;;;;;;;;;;;;;15.68;76.35;100671.63;6247071;23;1251;-89
2022/05/26 06:17:21;;;;;;;;;;;;;;;15.72;75.94;100669.91;6246859;23;890;-88
2022/05/26 06:19:46;;;;;;;;;;;;;;;15.75;76.15;100663.75;6247509;23;1254;-88
2022/05/26 06:22:16;;;;;;;;;;;;;;;16.03;75.14;100670.00;6272896;22;1884;-88
2022/05/26 06:24:41;;;;;;;;;;;;;;;16.13;72.45;100668.94;6247574;23;1275;-87
2022/05/26 06:29:51;;;;;;;;;;;;;;;16.08;73.15;100669.88;6248744;23;607;-88
2022/05/26 06:37:45;;;;;;;;;;;;;;;15.81;76.03;100675.50;6250257;23;608;-87
2022/05/26 06:40:14;;;;;;;;;;;;;;;15.83;76.63;100675.97;6222934;23;1893;-87
2022/05/26 06:42:39;;;;;;;;;;;;;;;15.78;76.77;100674.19;6250498;23;865;-88
2022/05/26 06:45:05;;;;;;;;;;;;;;;15.99;76.45;100677.25;6223587;23;1191;-87
2022/05/26 06:47:31;;;;;;;;;;;;;;;16.16;75.13;100677.41;6222919;23;1187;-88
2022/05/26 06:49:56;;;;;;;;;;;;;;;15.95;75.76;100684.56;6223682;23;1226;-88
2022/05/26 06:52:28;;;;;;;;;;;;;;;15.94;75.88;100685.66;6223795;23;1250;-87
2022/05/26 06:54:54;;;;;;;;;;;;;;;16.18;75.34;100686.19;6222692;23;1342;-89
2022/05/26 06:57:19;;;;;;;;;;;;;;;16.09;76.15;100690.00;6223603;23;1360;-86
2022/05/26 06:59:44;;;;;;;;;;;;;;;16.63;74.95;100687.03;6222837;23;1171;-86
2022/05/26 07:02:11;;;;;;;;;;;;;;;16.68;74.75;100691.59;6223152;23;1888;-88
2022/05/26 07:04:37;;;;;;;;;;;;;;;16.78;74.49;100690.50;6247541;23;1196;-89
2022/05/26 07:07:02;;;;;;;;;;;;;;;16.52;74.15;100695.84;6221006;23;1171;-89
2022/05/26 07:09:27;;;;;;;;;;;;;;;16.12;75.48;100697.69;6221110;23;1516;-90
2022/05/26 07:11:53;;;;;;;;;;;;;;;15.83;76.39;100703.59;6222102;23;1289;-90
2022/05/26 07:14:19;;;;;;;;;;;;;;;16.25;75.82;100705.09;6221310;23;1356;-90
2022/05/26 07:16:59;;;;;;;;;;;;;;;16.55;74.74;100712.63;6221598;23;1286;-90
2022/05/26 07:19:25;;;;;;;;;;;;;;;16.70;73.02;100719.75;6221539;23;1171;-90
2022/05/26 07:21:50;;;;;;;;;;;;;;;16.72;72.96;100714.72;6221792;23;1865;-90
2022/05/26 07:24:16;;;;;;;;;;;;;;;16.40;72.97;100709.44;6223619;23;1263;-87
2022/05/26 07:26:42;;;;;;;;;;;;;;;15.99;74.94;100713.16;6221405;23;1271;-87
2022/05/26 07:29:07;;;;;;;;;;;;;;;15.96;75.00;100721.25;6220931;23;1306;-88
2022/05/26 07:31:32;;;;;;;;;;;;;;;16.30;74.38;100723.50;6221279;23;1163;-88
2022/05/26 07:33:57;;;;;;;;;;;;;;;16.08;74.96;100725.09;6229444;23;1242;-88
2022/05/26 07:42:02;;;;;;;;;;;;;;;16.23;74.25;100741.31;6247718;23;1892;-89
2022/05/26 07:44:31;;;;;;;;;;;;;;;16.38;74.69;100737.38;6245521;23;1400;-90
2022/05/26 07:47:05;;;;;;;;;;;;;;;16.82;73.97;100736.56;6246703;23;1302;-90
2022/05/26 07:49:44;;;;;;;;;;;;;;;17.07;71.52;100731.50;6247794;23;1172;-89
2022/05/26 07:52:10;;;;;;;;;;;;;;;16.88;73.69;100737.25;6247339;23;1354;-89
2022/05/26 07:54:35;;;;;;;;;;;;;;;16.97;73.64;100738.94;6246859;23;1337;-90
2022/05/26 07:57:01;;;;;;;;;;;;;;;16.73;72.44;100738.47;6246422;23;1269;-88
2022/05/26 07:59:27;;;;;;;;;;;;;;;16.65;73.29;100733.69;6246278;23;1334;-89
2022/05/26 08:01:56;;;;;;;;;;;;;;;16.69;73.53;100737.44;6246048;23;1900;-90
2022/05/26 08:04:39;;;;;;;;;;;;;;;16.61;72.95;100743.75;6246085;23;1246;-89
2022/05/26 08:07:04;;;;;;;;;;;;;;;16.88;72.89;100745.53;6246115;23;1204;-90
2022/05/26 08:09:29;;;;;;;;;;;;;;;16.80;71.79;100744.34;6246160;23;1179;-90
2022/05/26 08:11:55;;;;;;;;;;;;;;;16.72;71.56;100755.34;6245940;23;1290;-89
2022/05/26 08:14:20;;;;;;;;;;;;;;;16.49;73.34;100757.28;6245415;23;1340;-89
2022/05/26 08:16:45;;;;;;;;;;;;;;;16.10;72.30;100747.69;6245326;23;1378;-89
2022/05/26 08:19:10;;;;;;;;;;;;;;;16.28;72.73;100755.00;6245341;23;1340;-89
2022/05/26 08:21:35;;;;;;;;;;;;;;;16.35;71.78;100765.63;6246023;23;1927;-87
2022/05/26 08:24:01;;;;;;;;;;;;;;;16.40;71.72;100760.00;6271617;22;1279;-88
2022/05/26 08:26:28;;;;;;;;;;;;;;;16.45;71.98;100761.78;6246820;23;1147;-87
2022/05/26 08:28:53;;;;;;;;;;;;;;;16.68;71.35;100773.69;6247284;23;1202;-87
2022/05/26 08:31:18;;;;;;;;;;;;;;;16.79;70.05;100775.06;6246929;23;1201;-87
2022/05/26 08:33:44;;;;;;;;;;;;;;;16.93;70.27;100773.03;6249656;23;1140;-88
2022/05/26 08:36:12;;;;;;;;;;;;;;;17.32;70.43;100783.34;6223036;23;1387;-87
2022/05/26 08:38:38;;;;;;;;;;;;;;;17.34;69.65;100770.84;6222205;23;1285;-86
2022/05/26 08:41:03;;;;;;;;;;;;;;;17.76;69.18;100771.34;6221586;23;1924;-87
2022/05/26 08:43:40;;;;;;;;;;;;;;;17.47;65.28;100765.50;6222051;23;1259;-87
2022/05/26 08:46:07;;;;;;;;;;;;;;;17.11;69.48;100768.44;6222545;23;1214;-87
2022/05/26 08:48:40;;;;;;;;;;;;;;;17.35;67.97;100777.97;6223520;23;1199;-87
2022/05/26 08:51:09;;;;;;;;;;;;;;;17.05;68.73;100778.00;6222744;23;1238;-87
2022/05/26 08:53:36;;;;;;;;;;;;;;;17.23;69.90;100779.72;6222331;23;1270;-87
2022/05/26 08:56:02;;;;;;;;;;;;;;;17.12;68.86;100786.66;6222110;23;1265;-87
2022/05/26 08:58:32;;;;;;;;;;;;;;;17.31;68.54;100793.59;6222640;23;1242;-87
2022/05/26 09:01:00;;;;;;;;;;;;;;;17.42;67.82;100794.16;6222078;23;1927;-87
2022/05/26 09:03:28;;;;;;;;;;;;;;;17.29;66.58;100790.34;6222220;23;1184;-87
2022/05/26 09:05:59;;;;;;;;;;;;;;;17.55;67.10;100793.22;6221444;23;1301;-87
2022/05/26 09:14:05;;;;;;;;;;;;;;;18.22;64.47;100801.22;6248450;23;1271;-87
2022/05/26 09:16:32;;;;;;;;;;;;;;;17.87;66.67;100807.81;6222033;23;1194;-87
2022/05/26 09:19:07;;;;;;;;;;;;;;;17.92;65.96;100808.50;6221253;23;1408;-87
2022/05/26 09:21:32;;;;;;;;;;;;;;;17.59;67.00;100812.78;6247257;23;1927;-87
2022/05/26 09:24:16;;;;;;;;;;;;;;;17.47;66.40;100807.00;6223393;23;1261;-86
2022/05/26 09:26:44;;;;;;;;;;;;;;;17.57;67.86;100812.28;6224776;23;1289;-86
2022/05/26 09:29:11;;;;;;;;;;;;;;;17.49;65.24;100821.34;6222543;23;1159;-87
2022/05/26 09:31:43;;;;;;;;;;;;;;;17.45;65.92;100817.56;6249337;23;779;-88
2022/05/26 09:34:08;;;;;;;;;;;;;;;17.62;66.07;100821.28;6247609;23;1310;-87
2022/05/26 09:36:40;;;;;;;;;;;;;;;17.72;64.41;100817.41;6249815;23;861;-88
2022/05/26 09:39:06;;;;;;;;;;;;;;;17.77;64.01;100820.88;6224171;23;1274;-88
2022/05/26 09:41:38;;;;;;;;;;;;;;;17.78;65.92;100822.47;6223101;23;1934;-88
2022/05/26 09:44:03;;;;;;;;;;;;;;;17.73;64.79;100821.81;6222022;23;1289;-88
2022/05/26 09:46:29;;;;;;;;;;;;;;;18.22;65.48;100831.69;6223687;23;1285;-89
2022/05/26 09:49:00;;;;;;;;;;;;;;;17.97;64.78;100836.03;6223467;23;1197;-87
2022/05/26 09:51:30;;;;;;;;;;;;;;;17.50;65.05;100845.94;6222880;23;1329;-88
2022/05/26 09:53:55;;;;;;;;;;;;;;;17.26;65.88;100842.75;6222274;23;1247;-87
2022/05/26 09:56:28;;;;;;;;;;;;;;;17.79;66.01;100842.66;6222313;23;714;-89
2022/05/26 09:58:54;;;;;;;;;;;;;;;18.07;64.73;100846.03;6221683;23;1139;-88
2022/05/26 10:01:23;;;;;;;;;;;;;;;17.87;63.70;100847.41;6222282;23;1923;-88
2022/05/26 10:04:12;;;;;;;;;;;;;;;18.22;64.30;100856.63;6221958;23;1240;-88
2022/05/26 10:06:54;;;;;;;;;;;;;;;17.91;65.71;100851.19;6248003;23;1275;-86
2022/05/26 16:11:39;;;;;;;;;;;;;;;20.31;50.12;100714.94;6303915;22;1577;-89
2022/05/26 16:14:10;;;;;;;;;;;;;;;20.59;48.33;100718.78;6307751;22;912;-89
2022/05/26 16:16:38;;;;;;;;;;;;;;;20.60;49.60;100723.19;6282741;22;1182;-90
2022/05/26 16:21:46;;;;;;;;;;;;;;;20.02;50.42;100718.59;6277762;22;1896;-90
2022/05/26 16:24:15;;;;;;;;;;;;;;;20.04;49.56;100730.19;6251547;22;1389;-90
2022/05/26 16:26:40;;;;;;;;;;;;;;;20.10;48.22;100714.13;6250883;22;1306;-90
2022/05/26 16:29:37;;;;;;;;;;;;;;;20.03;50.08;100720.25;6251691;22;1242;-90
2022/05/26 16:32:03;;;;;;;;;;;;;;;19.96;50.29;100725.53;6244912;23;1281;-90
2022/05/26 16:34:31;;;;;;;;;;;;;;;20.18;48.29;100711.28;6220616;23;1460;-90
2022/05/26 16:36:57;;;;;;;;;;;;;;;20.52;48.46;100721.31;6221248;23;1382;-90
2022/05/26 16:39:24;;;;;;;;;;;;;;;20.28;48.68;100708.09;6220738;23;1219;-90
2022/05/26 16:41:50;;;;;;;;;;;;;;;20.17;49.10;100712.44;6247795;23;1927;-90
2022/05/26 16:44:16;;;;;;;;;;;;;;;20.07;49.09;100715.66;6247434;23;829;-90
2022/05/26 16:46:41;;;;;;;;;;;;;;;19.92;49.95;100702.34;6221045;23;1206;-92
2022/05/26 16:49:11;;;;;;;;;;;;;;;20.33;50.16;100709.88;6220632;23;1306;-89
2022/05/26 16:54:55;;;;;;;;;;;;;;;20.65;49.35;100702.72;6231134;23;1214;-91
2022/05/26 16:57:20;;;;;;;;;;;;;;;20.75;47.76;100710.63;6247475;23;1429;-90
2022/05/26 16:59:49;;;;;;;;;;;;;;;20.47;50.02;100706.81;6220316;23;1253;-90
2022/05/26 17:02:40;;;;;;;;;;;;;;;20.43;48.41;100700.28;6247842;23;1942;-90
2022/05/26 17:05:09;;;;;;;;;;;;;;;20.23;49.35;100708.31;6245820;23;1338;-91
2022/05/26 17:07:35;;;;;;;;;;;;;;;20.26;50.22;100695.69;6220472;23;1357;-91
2022/05/26 17:10:10;;;;;;;;;;;;;;;20.02;49.51;100691.63;6247978;23;1350;-90
2022/05/26 17:21:15;;;;;;;;;;;;;;;19.98;49.57;100696.25;6247624;23;1889;-91
2022/05/26 17:26:38;;;;;;;;;;;;;;;20.15;51.53;100705.59;6246084;23;1145;-89
2022/05/26 17:29:21;;;;;;;;;;;;;;;19.98;51.12;100690.69;6220882;23;1301;-90
2022/05/26 17:32:06;;;;;;;;;;;;;;;19.90;52.76;100697.13;6220730;23;1424;-89
2022/05/26 17:34:31;;;;;;;;;;;;;;;20.22;51.58;100697.53;6219772;23;1284;-90
2022/05/26 17:40:08;;;;;;;;;;;;;;;20.53;50.02;100688.75;6235715;22;1577;-89
2022/05/26 17:42:33;;;;;;;;;;;;;;;20.08;51.04;100683.06;6251013;22;1888;-89
2022/05/26 17:44:58;;;;;;;;;;;;;;;19.86;51.86;100687.84;6252585;22;1255;-89
2022/05/26 17:47:23;;;;;;;;;;;;;;;19.66;50.77;100680.28;6280482;22;749;-90
2022/05/26 17:49:58;;;;;;;;;;;;;;;19.82;50.80;100681.31;6245752;23;1291;-89
2022/05/26 17:52:33;;;;;;;;;;;;;;;19.68;52.77;100678.00;6247947;23;1287;-90
2022/05/26 17:55:06;;;;;;;;;;;;;;;19.63;52.48;100667.09;6245395;23;1365;-89
2022/05/26 17:57:46;;;;;;;;;;;;;;;19.68;52.42;100668.84;6195700;23;1328;-90
2022/05/26 18:03:03;;;;;;;;;;;;;;;19.57;52.86;100663.69;6249041;23;643;-89
2022/05/26 18:05:30;;;;;;;;;;;;;;;19.60;52.33;100668.56;6246919;23;1167;-87
2022/05/26 18:07:56;;;;;;;;;;;;;;;19.44;53.26;100669.47;6246521;23;1280;-90
2022/05/26 18:10:21;;;;;;;;;;;;;;;19.39;51.88;100675.22;6221808;23;1293;-89
2022/05/26 18:16:12;;;;;;;;;;;;;;;19.83;52.49;100671.84;6248317;23;1038;-89
2022/05/26 18:22:02;;;;;;;;;;;;;;;19.71;52.82;100659.84;6254556;22;2003;-88
2022/05/26 18:24:50;;;;;;;;;;;;;;;19.77;52.99;100664.88;6250008;22;1288;-87
2022/05/26 18:27:17;;;;;;;;;;;;;;;19.77;53.07;100662.09;6248280;22;1406;-89
2022/05/26 18:29:54;;;;;;;;;;;;;;;19.95;53.14;100663.59;6250341;22;1338;-89
2022/05/26 18:32:25;;;;;;;;;;;;;;;19.78;53.54;100668.47;6274127;22;1328;-90
2022/05/26 18:34:53;;;;;;;;;;;;;;;19.65;53.29;100662.00;6278035;22;804;-90
2022/05/26 18:37:22;;;;;;;;;;;;;;;19.45;53.08;100671.09;6276483;22;1538;-88
2022/05/26 18:39:47;;;;;;;;;;;;;;;19.59;53.95;100666.94;6278612;22;1278;-89
2022/05/26 18:42:36;;;;;;;;;;;;;;;19.76;52.32;100666.00;6276330;22;1972;-89
2022/05/26 18:45:02;;;;;;;;;;;;;;;19.41;54.44;100664.56;6261338;22;1513;-89
2022/05/26 18:47:32;;;;;;;;;;;;;;;19.19;52.69;100668.47;6275934;22;1366;-88
2022/05/26 18:49:57;;;;;;;;;;;;;;;19.31;54.16;100660.22;6275758;22;1229;-89
2022/05/26 18:52:22;;;;;;;;;;;;;;;19.46;51.96;100653.31;6277027;22;1298;-89
2022/05/26 18:54:49;;;;;;;;;;;;;;;19.55;52.77;100654.09;6278005;22;1003;-89
2022/05/26 18:57:14;;;;;;;;;;;;;;;19.46;52.47;100654.13;6276758;22;1253;-89
2022/05/26 18:59:39;;;;;;;;;;;;;;;19.41;53.58;100664.56;6277823;22;1191;-90
2022/05/26 19:02:14;;;;;;;;;;;;;;;19.47;53.02;100653.00;6276509;22;1922;-89
2022/05/26 19:05:06;;;;;;;;;;;;;;;19.61;52.34;100659.09;6276069;22;1201;-89
2022/05/26 19:07:31;;;;;;;;;;;;;;;19.11;53.92;100659.03;6263727;22;1602;-89
2022/05/26 19:09:57;;;;;;;;;;;;;;;18.94;55.55;100650.78;6276014;22;1278;-89
2022/05/26 19:15:37;;;;;;;;;;;;;;;19.06;53.95;100648.09;6130451;23;1403;-89
2022/05/26 19:18:07;;;;;;;;;;;;;;;19.39;53.23;100644.69;6260405;22;1362;-90
2022/05/26 19:20:36;;;;;;;;;;;;;;;19.73;52.21;100646.44;6275822;22;1880;-89
2022/05/26 19:23:25;;;;;;;;;;;;;;;19.00;53.83;100649.44;6275819;22;1304;-89
2022/05/26 19:26:29;;;;;;;;;;;;;;;19.01;54.97;100655.81;6264770;22;1343;-89
2022/05/26 19:29:26;;;;;;;;;;;;;;;19.00;55.41;100655.00;6274297;22;1542;-89
2022/05/26 19:31:53;;;;;;;;;;;;;;;19.26;54.15;100644.59;6274983;22;1165;-89
2022/05/26 19:34:33;;;;;;;;;;;;;;;18.97;53.38;100652.88;6276782;22;1349;-89
2022/05/26 19:37:05;;;;;;;;;;;;;;;18.79;55.66;100654.13;6278059;22;1215;-89
2022/05/26 19:39:37;;;;;;;;;;;;;;;18.87;55.25;100658.81;6286674;22;1344;-88
2022/05/26 19:42:09;;;;;;;;;;;;;;;18.84;55.16;100651.97;6275805;22;1896;-90
2022/05/26 19:44:59;;;;;;;;;;;;;;;18.82;55.99;100648.72;6277528;22;1362;-89
2022/05/26 19:47:26;;;;;;;;;;;;;;;18.84;54.39;100651.16;6278022;22;1234;-90
2022/05/26 19:50:13;;;;;;;;;;;;;;;19.20;54.30;100648.72;6278384;22;1604;-90
2022/05/26 19:52:57;;;;;;;;;;;;;;;19.15;53.64;100651.66;6280946;22;1529;-90
2022/05/26 19:55:49;;;;;;;;;;;;;;;18.93;53.39;100653.91;6243388;23;1319;-90
2022/05/26 20:02:03;;;;;;;;;;;;;;;18.93;54.68;100654.72;6212591;23;1947;-90
2022/05/26 20:04:28;;;;;;;;;;;;;;;19.06;54.82;100656.44;6188184;23;1318;-89